createdAt,value
2018-02-11T00:00:29.461Z,80.15
2018-02-11T00:01:29.727Z,79.87
2018-02-11T00:02:29.739Z,80.34
2018-02-11T00:03:29.498Z,80.06
2018-02-11T00:04:29.525Z,80.25
2018-02-11T00:05:29.777Z,80.25
2018-02-11T00:06:29.543Z,80.4
2018-02-11T00:07:29.801Z,79.96
2018-02-11T00:08:29.815Z,80.4
2018-02-11T00:09:29.576Z,80.44
2018-02-11T00:10:29.590Z,80.77
2018-02-11T00:11:29.604Z,80.87
2018-02-11T00:12:29.637Z,80.4
2018-02-11T00:13:29.885Z,80.58
2018-02-11T00:14:29.893Z,80.77
2018-02-11T00:15:29.657Z,80.68
2018-02-11T00:16:29.919Z,81.06
2018-02-11T00:17:29.934Z,80.49
2018-02-11T00:18:29.694Z,80.77
2018-02-11T00:19:29.706Z,80.49
2018-02-11T00:20:29.719Z,80.15
2018-02-11T00:21:29.731Z,80.02
2018-02-11T00:22:29.746Z,80.02
2018-02-11T00:23:29.757Z,80.21
2018-02-11T00:24:29.768Z,80.49
2018-02-11T00:25:30.036Z,80.49
2018-02-11T00:26:29.795Z,80.68
2018-02-11T00:27:29.809Z,80.3
2018-02-11T00:28:30.077Z,80.87
2018-02-11T00:29:29.833Z,80.87
2018-02-11T00:30:29.856Z,80.68
2018-02-11T00:31:29.858Z,80.49
2018-02-11T00:32:29.873Z,80.77
2018-02-11T00:33:29.897Z,80.3
2018-02-11T00:34:30.146Z,79.83
2018-02-11T00:35:30.162Z,79.3
2018-02-11T00:36:30.173Z,79.39
2018-02-11T00:37:30.192Z,79.26
2018-02-11T00:38:29.948Z,79.93
2018-02-11T00:39:30.214Z,80.21
2018-02-11T00:40:29.983Z,80.11
2018-02-11T00:41:29.988Z,80.44
2018-02-11T00:42:30.269Z,80.06
2018-02-11T00:43:30.263Z,79.3
2018-02-11T00:44:30.026Z,79.02
2018-02-11T00:45:30.042Z,79.11
2018-02-11T00:46:30.301Z,78.92
2018-02-11T00:47:30.077Z,78.92
2018-02-11T00:48:30.086Z,79.74
2018-02-11T00:49:30.343Z,79.55
2018-02-11T00:50:30.101Z,79.45
2018-02-11T00:51:30.371Z,79.74
2018-02-11T00:52:30.384Z,79.55
2018-02-11T00:53:30.391Z,79.55
2018-02-11T00:54:30.409Z,79.83
2018-02-11T00:55:30.419Z,79.45
2018-02-11T00:56:30.179Z,79.74
2018-02-11T00:57:30.441Z,79.45
2018-02-11T00:58:30.203Z,79.58
2018-02-11T00:59:30.216Z,79.58
2018-02-11T01:00:30.484Z,79.58
2018-02-11T01:01:30.496Z,79.64
2018-02-11T01:02:30.258Z,80.21
2018-02-11T01:03:30.519Z,79.83
2018-02-11T01:04:30.281Z,80.21
2018-02-11T01:05:30.546Z,79.58
2018-02-11T01:06:30.559Z,79.49
2018-02-11T01:07:30.319Z,79.68
2018-02-11T01:08:30.341Z,79.68
2018-02-11T01:09:30.345Z,79.21
2018-02-11T01:10:30.614Z,79.26
2018-02-11T01:11:30.630Z,79.17
2018-02-11T01:12:30.385Z,79.55
2018-02-11T01:13:30.393Z,79.64
2018-02-11T01:14:30.405Z,79.55
2018-02-11T01:15:30.675Z,79.64
2018-02-11T01:16:30.449Z,79.55
2018-02-11T01:17:30.699Z,80.3
2018-02-11T01:18:30.462Z,80.3
2018-02-11T01:19:30.729Z,79.74
2018-02-11T01:20:30.738Z,79.74
2018-02-11T01:21:30.803Z,79.64
2018-02-11T01:22:30.762Z,79.17
2018-02-11T01:23:30.532Z,79.11
2018-02-11T01:24:30.538Z,79.3
2018-02-11T01:25:30.823Z,79.21
2018-02-11T01:26:30.571Z,79.07
2018-02-11T01:27:30.575Z,79.55
2018-02-11T01:28:30.838Z,79.55
2018-02-11T01:29:30.850Z,80.02
2018-02-11T01:30:30.873Z,80.11
2018-02-11T01:31:30.874Z,80.11
2018-02-11T01:32:30.889Z,80.3
2018-02-11T01:33:30.900Z,80.02
2018-02-11T01:34:30.912Z,79.74
2018-02-11T01:35:30.680Z,79.55
2018-02-11T01:36:30.692Z,79.55
2018-02-11T01:37:30.962Z,79.36
2018-02-11T01:38:30.719Z,80.21
2018-02-11T01:39:30.731Z,80.3
2018-02-11T01:40:30.744Z,80.21
2018-02-11T01:41:31.014Z,80.21
2018-02-11T01:42:30.770Z,79.55
2018-02-11T01:43:30.782Z,80.21
2018-02-11T01:44:30.796Z,80.21
2018-02-11T01:45:30.808Z,79.36
2018-02-11T01:46:31.082Z,79.45
2018-02-11T01:47:30.833Z,79.36
2018-02-11T01:48:31.099Z,79.36
2018-02-11T01:49:30.862Z,79.45
2018-02-11T01:50:31.122Z,79.26
2018-02-11T01:51:31.139Z,79.17
2018-02-11T01:52:31.150Z,79.45
2018-02-11T01:53:30.909Z,79.26
2018-02-11T01:54:31.183Z,79.64
2018-02-11T01:55:31.187Z,79.55
2018-02-11T01:56:30.951Z,80.3
2018-02-11T01:57:31.216Z,80.02
2018-02-11T01:58:31.228Z,80.4
2018-02-11T01:59:31.246Z,80.68
2018-02-11T02:00:31.250Z,80.58
2018-02-11T02:01:31.014Z,81.25
2018-02-11T02:02:31.028Z,80.77
2018-02-11T02:03:31.294Z,80.77
2018-02-11T02:04:31.304Z,80.68
2018-02-11T02:05:31.064Z,80.68
2018-02-11T02:06:31.082Z,80.49
2018-02-11T02:07:31.340Z,80.87
2018-02-11T02:08:31.424Z,80.58
2018-02-11T02:09:31.365Z,80.68
2018-02-11T02:10:31.126Z,80.3
2018-02-11T02:11:31.140Z,80.21
2018-02-11T02:12:31.152Z,80.58
2018-02-11T02:13:31.432Z,80.02
2018-02-11T02:14:31.435Z,79.93
2018-02-11T02:15:31.441Z,80.21
2018-02-11T02:16:31.453Z,80.4
2018-02-11T02:17:31.467Z,80.68
2018-02-11T02:18:31.229Z,80.87
2018-02-11T02:19:31.240Z,80.68
2018-02-11T02:20:31.254Z,80.21
2018-02-11T02:21:31.269Z,80.21
2018-02-11T02:22:31.529Z,80.3
2018-02-11T02:23:31.543Z,80.68
2018-02-11T02:24:31.556Z,80.49
2018-02-11T02:25:31.570Z,80.02
2018-02-11T02:26:31.329Z,80.11
2018-02-11T02:27:31.592Z,80.11
2018-02-11T02:28:31.608Z,80.77
2018-02-11T02:29:31.617Z,80.49
2018-02-11T02:30:31.377Z,80.3
2018-02-11T02:31:31.390Z,80.3
2018-02-11T02:32:31.654Z,80.11
2018-02-11T02:33:31.671Z,80.68
2018-02-11T02:34:31.442Z,80.87
2018-02-11T02:35:31.696Z,80.87
2018-02-11T02:36:31.709Z,80.58
2018-02-11T02:37:31.735Z,80.55
2018-02-11T02:38:31.482Z,80.77
2018-02-11T02:39:31.752Z,80.55
2018-02-11T02:40:31.510Z,80.93
2018-02-11T02:41:31.517Z,80.83
2018-02-11T02:42:31.530Z,80.74
2018-02-11T02:43:31.543Z,80.83
2018-02-11T02:44:31.556Z,81.02
2018-02-11T02:45:31.570Z,80.64
2018-02-11T02:46:31.839Z,81.02
2018-02-11T02:47:31.593Z,81.3
2018-02-11T02:48:31.605Z,81.12
2018-02-11T02:49:31.621Z,81.21
2018-02-11T02:50:31.886Z,81.12
2018-02-11T02:51:31.644Z,81.12
2018-02-11T02:52:31.910Z,81.12
2018-02-11T02:53:31.921Z,81.12
2018-02-11T02:54:31.933Z,81.12
2018-02-11T02:55:31.696Z,81.02
2018-02-11T02:56:31.707Z,81.21
2018-02-11T02:57:31.719Z,81.77
2018-02-11T02:58:31.996Z,81.68
2018-02-11T02:59:31.995Z,81.12
2018-02-11T03:00:32.016Z,81.12
2018-02-11T03:01:31.781Z,81.02
2018-02-11T03:02:32.031Z,81.87
2018-02-11T03:03:31.802Z,81.12
2018-02-11T03:04:32.057Z,81.12
2018-02-11T03:05:32.075Z,80.93
2018-02-11T03:06:31.827Z,80.55
2018-02-11T03:07:32.093Z,80.83
2018-02-11T03:08:31.853Z,80.83
2018-02-11T03:09:31.864Z,81.12
2018-02-11T03:10:31.879Z,81.49
2018-02-11T03:11:32.147Z,81.21
2018-02-11T03:12:31.901Z,81.12
2018-02-11T03:13:32.165Z,81.12
2018-02-11T03:14:32.182Z,81.21
2018-02-11T03:15:32.241Z,81.21
2018-02-11T03:16:32.200Z,81.21
2018-02-11T03:17:32.216Z,81.02
2018-02-11T03:18:32.223Z,80.74
2018-02-11T03:19:31.986Z,80.83
2018-02-11T03:20:32.000Z,80.74
2018-02-11T03:21:32.262Z,80.74
2018-02-11T03:22:32.022Z,80.93
2018-02-11T03:23:32.290Z,80.93
2018-02-11T03:24:32.061Z,81.21
2018-02-11T03:25:32.367Z,81.49
2018-02-11T03:26:32.325Z,81.77
2018-02-11T03:27:32.352Z,81.77
2018-02-11T03:28:32.103Z,81.02
2018-02-11T03:29:32.370Z,81.02
2018-02-11T03:30:32.389Z,80.74
2018-02-11T03:31:32.402Z,81.21
2018-02-11T03:32:32.174Z,81.02
2018-02-11T03:33:32.161Z,81.12
2018-02-11T03:34:32.423Z,80.93
2018-02-11T03:35:32.436Z,80.93
2018-02-11T03:36:32.447Z,80.74
2018-02-11T03:37:32.465Z,80.64
2018-02-11T03:38:32.476Z,80.83
2018-02-11T03:39:32.489Z,80.74
2018-02-11T03:40:32.496Z,80.45
2018-02-11T03:41:32.514Z,80.55
2018-02-11T03:42:32.522Z,80.26
2018-02-11T03:43:32.283Z,79.88
2018-02-11T03:44:32.548Z,79.79
2018-02-11T03:45:32.556Z,79.32
2018-02-11T03:46:32.321Z,79.79
2018-02-11T03:47:32.332Z,79.6
2018-02-11T03:48:32.345Z,79.5
2018-02-11T03:49:32.355Z,79.6
2018-02-11T03:50:32.619Z,79.69
2018-02-11T03:51:32.381Z,79.13
2018-02-11T03:52:32.646Z,79.03
2018-02-11T03:53:32.670Z,78.94
2018-02-11T03:54:32.419Z,79.03
2018-02-11T03:55:32.428Z,79.13
2018-02-11T03:56:32.693Z,79.03
2018-02-11T03:57:32.705Z,79.03
2018-02-11T03:58:32.718Z,78.46
2018-02-11T03:59:32.728Z,78.18
2018-02-11T04:00:32.754Z,77.89
2018-02-11T04:01:32.504Z,78.41
2018-02-11T04:02:32.765Z,78.69
2018-02-11T04:03:32.781Z,78.22
2018-02-11T04:04:32.784Z,78.22
2018-02-11T04:05:32.553Z,77.99
2018-02-11T04:06:32.565Z,78.37
2018-02-11T04:07:32.830Z,78.46
2018-02-11T04:08:32.599Z,78.08
2018-02-11T04:09:32.856Z,78.46
2018-02-11T04:10:32.867Z,77.89
2018-02-11T04:11:32.630Z,78.08
2018-02-11T04:12:32.890Z,78.46
2018-02-11T04:13:32.906Z,78.85
2018-02-11T04:14:32.930Z,78.37
2018-02-11T04:15:32.681Z,78.85
2018-02-11T04:16:32.941Z,78.27
2018-02-11T04:17:32.706Z,78.37
2018-02-11T04:18:32.971Z,78.65
2018-02-11T04:19:32.978Z,78.65
2018-02-11T04:20:32.743Z,78.27
2018-02-11T04:21:32.755Z,78.27
2018-02-11T04:22:33.020Z,78.37
2018-02-11T04:23:33.029Z,78.27
2018-02-11T04:24:33.042Z,78.56
2018-02-11T04:25:32.804Z,77.8
2018-02-11T04:26:33.067Z,78.37
2018-02-11T04:27:33.083Z,78.27
2018-02-11T04:28:32.840Z,78.37
2018-02-11T04:29:33.107Z,78.27
2018-02-11T04:30:33.118Z,78.08
2018-02-11T04:31:32.879Z,78.46
2018-02-11T04:32:33.144Z,77.61
2018-02-11T04:33:32.904Z,77.51
2018-02-11T04:34:32.916Z,77.23
2018-02-11T04:35:32.930Z,77.42
2018-02-11T04:36:33.191Z,77.14
2018-02-11T04:37:33.203Z,77.51
2018-02-11T04:38:33.230Z,77.51
2018-02-11T04:39:32.976Z,77.99
2018-02-11T04:40:33.289Z,78.08
2018-02-11T04:41:33.251Z,78.27
2018-02-11T04:42:33.268Z,78.27
2018-02-11T04:43:33.296Z,78.08
2018-02-11T04:44:33.290Z,78.27
2018-02-11T04:45:33.051Z,78.56
2018-02-11T04:46:33.065Z,78.08
2018-02-11T04:47:33.334Z,79.13
2018-02-11T04:48:33.341Z,79.13
2018-02-11T04:49:33.101Z,79.13
2018-02-11T04:50:33.368Z,78.65
2018-02-11T04:51:33.378Z,79.13
2018-02-11T04:52:33.390Z,77.99
2018-02-11T04:53:33.403Z,78.37
2018-02-11T04:54:33.163Z,78.18
2018-02-11T04:55:33.176Z,79.13
2018-02-11T04:56:33.438Z,78.65
2018-02-11T04:57:33.451Z,79.13
2018-02-11T04:58:33.462Z,78.56
2018-02-11T04:59:33.225Z,79.03
2018-02-11T05:00:33.491Z,78.94
2018-02-11T05:01:33.504Z,78.94
2018-02-11T05:02:33.515Z,79.03
2018-02-11T05:03:33.522Z,79.03
2018-02-11T05:04:33.553Z,79.03
2018-02-11T05:05:33.298Z,79.13
2018-02-11T05:06:33.310Z,79.03
2018-02-11T05:07:33.589Z,78.27
2018-02-11T05:08:33.582Z,79.13
2018-02-11T05:09:33.345Z,78.56
2018-02-11T05:10:33.610Z,78.75
2018-02-11T05:11:33.677Z,78.37
2018-02-11T05:12:33.383Z,78.08
2018-02-11T05:13:33.392Z,78.18
2018-02-11T05:14:33.659Z,78.27
2018-02-11T05:15:33.702Z,78.27
2018-02-11T05:16:33.732Z,78.27
2018-02-11T05:17:33.443Z,78.18
2018-02-11T05:18:33.455Z,78.27
2018-02-11T05:19:33.714Z,78.37
2018-02-11T05:20:33.731Z,77.99
2018-02-11T05:21:33.488Z,78.75
2018-02-11T05:22:33.750Z,78.65
2018-02-11T05:23:33.514Z,78.94
2018-02-11T05:24:33.526Z,79.03
2018-02-11T05:25:33.786Z,78.27
2018-02-11T05:26:33.549Z,78.37
2018-02-11T05:27:33.563Z,79.03
2018-02-11T05:28:33.824Z,79.13
2018-02-11T05:29:33.841Z,78.56
2018-02-11T05:30:33.847Z,79.03
2018-02-11T05:31:33.610Z,79.5
2018-02-11T05:32:33.621Z,79.5
2018-02-11T05:33:33.636Z,79.32
2018-02-11T05:34:33.899Z,79.41
2018-02-11T05:35:33.917Z,80.45
2018-02-11T05:36:33.918Z,79.79
2018-02-11T05:37:33.937Z,80.07
2018-02-11T05:38:33.947Z,79.41
2018-02-11T05:39:33.703Z,79.03
2018-02-11T05:40:33.977Z,79.03
2018-02-11T05:41:33.730Z,79.22
2018-02-11T05:42:33.999Z,79.13
2018-02-11T05:43:34.004Z,79.5
2018-02-11T05:44:34.023Z,79.41
2018-02-11T05:45:33.778Z,79.22
2018-02-11T05:46:33.790Z,79.5
2018-02-11T05:47:34.053Z,79.69
2018-02-11T05:48:33.813Z,79.6
2018-02-11T05:49:33.830Z,79.41
2018-02-11T05:50:33.837Z,79.69
2018-02-11T05:51:33.852Z,79.41
2018-02-11T05:52:34.111Z,79.41
2018-02-11T05:53:34.126Z,80.17
2018-02-11T05:54:34.135Z,79.41
2018-02-11T05:55:33.905Z,79.6
2018-02-11T05:56:33.912Z,79.22
2018-02-11T05:57:34.174Z,79.88
2018-02-11T05:58:33.936Z,80.36
2018-02-11T05:59:34.247Z,80.83
2018-02-11T06:00:34.213Z,79.98
2018-02-11T06:01:33.984Z,80.07
2018-02-11T06:02:34.236Z,80.45
2018-02-11T06:03:33.997Z,80.74
2018-02-11T06:04:34.306Z,81.3
2018-02-11T06:05:34.271Z,81.77
2018-02-11T06:06:34.284Z,81.77
2018-02-11T06:07:34.295Z,81.12
2018-02-11T06:08:34.319Z,81.12
2018-02-11T06:09:34.318Z,81.87
2018-02-11T06:10:34.079Z,81.77
2018-02-11T06:11:34.092Z,81.59
2018-02-11T06:12:34.104Z,81.68
2018-02-11T06:13:34.368Z,81.4
2018-02-11T06:14:34.386Z,81.59
2018-02-11T06:15:34.392Z,81.87
2018-02-11T06:16:34.404Z,81.96
2018-02-11T06:17:34.414Z,81.96
2018-02-11T06:18:34.176Z,81.77
2018-02-11T06:19:34.443Z,81.59
2018-02-11T06:20:34.454Z,81.87
2018-02-11T06:21:34.464Z,81.68
2018-02-11T06:22:34.224Z,81.77
2018-02-11T06:23:34.551Z,81.45
2018-02-11T06:24:34.248Z,81.49
2018-02-11T06:25:34.508Z,81.49
2018-02-11T06:26:34.273Z,81.68
2018-02-11T06:27:34.537Z,81.87
2018-02-11T06:28:34.294Z,81.77
2018-02-11T06:29:34.306Z,81.87
2018-02-11T06:30:34.569Z,81.77
2018-02-11T06:31:34.332Z,81.87
2018-02-11T06:32:34.602Z,81.74
2018-02-11T06:33:34.355Z,82.5
2018-02-11T06:34:34.618Z,82.4
2018-02-11T06:35:34.380Z,81.59
2018-02-11T06:36:34.642Z,81.96
2018-02-11T06:37:34.409Z,81.77
2018-02-11T06:38:34.415Z,81.77
2018-02-11T06:39:34.683Z,81.87
2018-02-11T06:40:34.688Z,81.02
2018-02-11T06:41:34.449Z,80.93
2018-02-11T06:42:34.459Z,81.21
2018-02-11T06:43:34.471Z,80.93
2018-02-11T06:44:34.491Z,81.02
2018-02-11T06:45:34.746Z,81.21
2018-02-11T06:46:34.510Z,80.74
2018-02-11T06:47:34.772Z,80.74
2018-02-11T06:48:34.533Z,80.45
2018-02-11T06:49:34.543Z,80.93
2018-02-11T06:50:34.556Z,80.74
2018-02-11T06:51:34.938Z,80.36
2018-02-11T06:52:34.831Z,81.02
2018-02-11T06:53:34.847Z,80.36
2018-02-11T06:54:34.604Z,80.74
2018-02-11T06:55:34.867Z,80.36
2018-02-11T06:56:34.879Z,80.55
2018-02-11T06:57:34.892Z,79.79
2018-02-11T06:58:34.920Z,79.88
2018-02-11T06:59:34.916Z,79.79
2018-02-11T07:00:34.930Z,79.98
2018-02-11T07:01:34.962Z,79.98
2018-02-11T07:02:34.951Z,80.17
2018-02-11T07:03:34.711Z,79.88
2018-02-11T07:04:34.976Z,80.07
2018-02-11T07:05:34.987Z,80.17
2018-02-11T07:06:34.863Z,79.88
2018-02-11T07:08:34.773Z,80.36
2018-02-11T07:09:34.787Z,80.26
2018-02-11T07:10:35.053Z,80.55
2018-02-11T07:11:34.811Z,80.93
2018-02-11T07:12:34.823Z,80.26
2018-02-11T07:13:34.850Z,79.79
2018-02-11T07:14:34.846Z,79.79
2018-02-11T07:15:34.860Z,79.88
2018-02-11T07:16:34.872Z,80.17
2018-02-11T07:17:34.884Z,80.17
2018-02-11T07:18:35.148Z,80.17
2018-02-11T07:19:35.166Z,80.17
2018-02-11T07:20:35.171Z,80.17
2018-02-11T07:21:35.183Z,79.41
2018-02-11T07:22:35.197Z,79.5
2018-02-11T07:23:34.955Z,79.69
2018-02-11T07:24:34.969Z,79.32
2018-02-11T07:25:35.234Z,79.5
2018-02-11T07:26:34.992Z,79.41
2018-02-11T07:27:35.287Z,79.41
2018-02-11T07:28:35.268Z,79.79
2018-02-11T07:29:35.289Z,80.07
2018-02-11T07:30:35.296Z,79.88
2018-02-11T07:31:35.309Z,79.79
2018-02-11T07:32:35.321Z,79.5
2018-02-11T07:33:35.079Z,79.26
2018-02-11T07:34:35.345Z,79.26
2018-02-11T07:35:35.361Z,79.17
2018-02-11T07:36:35.117Z,79.17
2018-02-11T07:37:35.130Z,79.07
2018-02-11T07:38:35.393Z,79.07
2018-02-11T07:39:35.155Z,78.22
2018-02-11T07:40:35.164Z,78.5
2018-02-11T07:41:35.432Z,77.75
2018-02-11T07:42:35.451Z,77.75
2018-02-11T07:43:35.465Z,77.37
2018-02-11T07:44:35.468Z,76.99
2018-02-11T07:45:35.248Z,77.27
2018-02-11T07:46:35.493Z,76.99
2018-02-11T07:47:35.256Z,76.42
2018-02-11T07:48:35.289Z,76.08
2018-02-11T07:49:35.281Z,75.42
2018-02-11T07:50:35.296Z,75.7
2018-02-11T07:51:35.558Z,75.23
2018-02-11T07:52:35.572Z,74.18
2018-02-11T07:53:35.589Z,74.47
2018-02-11T07:54:35.599Z,74.09
2018-02-11T07:55:35.363Z,74.09
2018-02-11T07:56:35.373Z,73.24
2018-02-11T07:57:35.640Z,73.37
2018-02-11T07:58:35.655Z,73.05
2018-02-11T07:59:35.667Z,72.42
2018-02-11T08:00:35.681Z,72.71
2018-02-11T08:01:35.440Z,72.33
2018-02-11T08:02:35.707Z,71.85
2018-02-11T08:03:35.716Z,70.81
2018-02-11T08:04:35.480Z,70.62
2018-02-11T08:05:35.747Z,69.96
2018-02-11T08:06:35.509Z,69.86
2018-02-11T08:07:35.522Z,70.34
2018-02-11T08:08:35.792Z,70.72
2018-02-11T08:09:35.800Z,70.05
2018-02-11T08:10:35.838Z,69.86
2018-02-11T08:11:35.828Z,70.62
2018-02-11T08:12:35.843Z,70.15
2018-02-11T08:13:35.605Z,70.62
2018-02-11T08:14:35.622Z,70.53
2018-02-11T08:15:35.880Z,70.72
2018-02-11T08:16:35.901Z,70.43
2018-02-11T08:17:35.663Z,70.05
2018-02-11T08:18:35.695Z,69.1
2018-02-11T08:19:35.935Z,69.38
2018-02-11T08:20:35.949Z,69.48
2018-02-11T08:21:35.711Z,69.01
2018-02-11T08:22:35.981Z,69.01
2018-02-11T08:23:35.746Z,69.1
2018-02-11T08:24:36.028Z,68.15
2018-02-11T08:25:36.090Z,68.63
2018-02-11T08:26:36.034Z,69.1
2018-02-11T08:27:35.794Z,68.91
2018-02-11T08:28:36.062Z,68.35
2018-02-11T08:29:35.824Z,67.4
2018-02-11T08:30:36.092Z,67.3
2018-02-11T08:31:36.110Z,67.21
2018-02-11T08:32:36.116Z,67.4
2018-02-11T08:33:36.141Z,67.3
2018-02-11T08:34:35.893Z,67.68
2018-02-11T08:35:36.159Z,67.33
2018-02-11T08:36:36.175Z,66.29
2018-02-11T08:37:36.190Z,66.58
2018-02-11T08:38:36.201Z,66.77
2018-02-11T08:39:35.966Z,66.39
2018-02-11T08:40:35.979Z,66.74
2018-02-11T08:41:36.261Z,66.48
2018-02-11T08:42:36.008Z,66.01
2018-02-11T08:43:36.276Z,66.26
2018-02-11T08:44:36.039Z,66.67
2018-02-11T08:45:36.306Z,65.53
2018-02-11T08:46:36.067Z,65.16
2018-02-11T08:47:36.082Z,65.16
2018-02-11T08:48:36.346Z,65.25
2018-02-11T08:49:36.110Z,65.63
2018-02-11T08:50:36.375Z,66.2
2018-02-11T08:51:36.149Z,65.82
2018-02-11T08:52:36.404Z,65.91
2018-02-11T08:53:36.425Z,66.01
2018-02-11T08:54:36.437Z,66.01
2018-02-11T08:55:36.191Z,65.82
2018-02-11T08:56:36.210Z,64.97
2018-02-11T08:57:36.476Z,64.78
2018-02-11T08:58:36.492Z,64.97
2018-02-11T08:59:36.507Z,64.87
2018-02-11T09:00:36.527Z,64.78
2018-02-11T09:01:36.537Z,64.78
2018-02-11T09:02:36.550Z,64.97
2018-02-11T09:03:36.312Z,64.74
2018-02-11T09:04:36.328Z,64.46
2018-02-11T09:05:36.591Z,64.3
2018-02-11T09:06:36.606Z,64.2
2018-02-11T09:07:36.639Z,64.68
2018-02-11T09:08:36.385Z,63.54
2018-02-11T09:09:36.401Z,62.59
2018-02-11T09:10:36.680Z,61.83
2018-02-11T09:11:36.716Z,62.4
2018-02-11T09:12:36.442Z,62.15
2018-02-11T09:13:36.460Z,62.31
2018-02-11T09:14:36.725Z,63.17
2018-02-11T09:15:36.741Z,63.17
2018-02-11T09:16:36.752Z,62.4
2018-02-11T09:17:36.769Z,62.4
2018-02-11T09:18:36.786Z,62.97
2018-02-11T09:19:36.550Z,62.88
2018-02-11T09:20:36.812Z,62.21
2018-02-11T09:21:36.829Z,62.12
2018-02-11T09:22:36.867Z,61.65
2018-02-11T09:23:36.859Z,61.74
2018-02-11T09:24:36.872Z,62.21
2018-02-11T09:25:36.906Z,61.83
2018-02-11T09:26:36.650Z,61.55
2018-02-11T09:27:36.916Z,61.83
2018-02-11T09:28:36.932Z,61.39
2018-02-11T09:29:36.954Z,61.83
2018-02-11T09:30:36.726Z,61.74
2018-02-11T09:31:36.975Z,61.3
2018-02-11T09:32:36.740Z,59.88
2018-02-11T09:33:37.005Z,60.16
2018-02-11T09:34:37.022Z,60.35
2018-02-11T09:35:37.035Z,60.63
2018-02-11T09:36:36.801Z,60.35
2018-02-11T09:37:36.818Z,59.59
2018-02-11T09:38:36.835Z,59.4
2018-02-11T09:39:37.109Z,59.02
2018-02-11T09:40:36.861Z,58.48
2018-02-11T09:41:36.880Z,58.45
2018-02-11T09:42:36.893Z,58.26
2018-02-11T09:43:36.910Z,58.36
2018-02-11T09:44:36.925Z,57.69
2018-02-11T09:45:36.957Z,58.54
2018-02-11T09:46:36.956Z,57.88
2018-02-11T09:47:37.225Z,57.5
2018-02-11T09:48:36.985Z,57.53
2018-02-11T09:49:37.003Z,56.68
2018-02-11T09:50:51.942Z,56.49
2018-02-11T09:51:37.284Z,55.82
2018-02-11T09:52:37.047Z,55.54
2018-02-11T09:53:37.063Z,55.73
2018-02-11T09:54:37.336Z,55.54
2018-02-11T09:55:37.345Z,54.78
2018-02-11T09:56:37.364Z,54.58
2018-02-11T09:57:37.379Z,55.16
2018-02-11T09:58:37.399Z,54.71
2018-02-11T09:59:37.411Z,54.05
2018-02-11T10:00:37.430Z,53
2018-02-11T10:01:37.190Z,52.05
2018-02-11T10:02:37.207Z,51.67
2018-02-11T10:03:37.478Z,52.24
2018-02-11T10:04:37.512Z,53
2018-02-11T10:05:37.510Z,52.91
2018-02-11T10:06:37.525Z,51.67
2018-02-11T10:07:37.548Z,51.41
2018-02-11T10:08:37.313Z,51.7
2018-02-11T10:09:37.586Z,51.57
2018-02-11T10:10:37.343Z,50.37
2018-02-11T10:11:37.616Z,50.56
2018-02-11T10:12:37.379Z,50.84
2018-02-11T10:13:37.652Z,50.08
2018-02-11T10:14:37.430Z,50.08
2018-02-11T10:15:37.683Z,50.08
2018-02-11T10:16:37.700Z,50.46
2018-02-11T10:17:37.717Z,49.89
2018-02-11T10:18:37.484Z,50.18
2018-02-11T10:19:37.754Z,50.27
2018-02-11T10:20:37.771Z,50.74
2018-02-11T10:21:37.541Z,51.22
2018-02-11T10:22:37.552Z,50.93
2018-02-11T10:23:37.570Z,52.08
2018-02-11T10:24:37.839Z,51.86
2018-02-11T10:25:37.858Z,51.76
2018-02-11T10:26:37.623Z,51.76
2018-02-11T10:27:37.641Z,51.86
2018-02-11T10:28:37.921Z,51.67
2018-02-11T10:29:37.928Z,51.76
2018-02-11T10:30:37.691Z,53.07
2018-02-11T10:31:37.963Z,53.73
2018-02-11T10:32:37.724Z,53.83
2018-02-11T10:33:37.994Z,53.85
2018-02-11T10:34:38.015Z,53.38
2018-02-11T10:35:37.774Z,53
2018-02-11T10:36:37.799Z,53.57
2018-02-11T10:37:38.060Z,54.21
2018-02-11T10:38:37.824Z,53.85
2018-02-11T10:39:38.092Z,52.62
2018-02-11T10:40:37.857Z,51.76
2018-02-11T10:41:38.127Z,51.57
2018-02-11T10:42:38.155Z,51.98
2018-02-11T10:43:37.915Z,51.89
2018-02-11T10:44:38.173Z,51.98
2018-02-11T10:45:38.192Z,51.12
2018-02-11T10:46:37.959Z,51.79
2018-02-11T10:47:38.228Z,51.79
2018-02-11T10:48:38.241Z,51.98
2018-02-11T10:49:38.261Z,51.98
2018-02-11T10:50:38.303Z,51.98
2018-02-11T10:51:38.043Z,52.08
2018-02-11T10:52:38.313Z,51.51
2018-02-11T10:53:38.328Z,51.89
2018-02-11T10:54:38.092Z,51.7
2018-02-11T10:55:38.110Z,51.95
2018-02-11T10:56:38.377Z,51.76
2018-02-11T10:57:38.397Z,51.67
2018-02-11T10:58:38.440Z,51.86
2018-02-11T10:59:38.440Z,51.57
2018-02-11T11:00:38.456Z,52.53
2018-02-11T11:01:38.459Z,51.57
2018-02-11T11:02:38.479Z,51.86
2018-02-11T11:03:38.494Z,51.31
2018-02-11T11:04:38.512Z,51.31
2018-02-11T11:05:38.534Z,51.03
2018-02-11T11:06:38.545Z,51.03
2018-02-11T11:07:38.312Z,50.56
2018-02-11T11:08:38.604Z,50.74
2018-02-11T11:09:38.344Z,51.06
2018-02-11T11:10:38.613Z,50.29
2018-02-11T11:11:38.634Z,49.82
2018-02-11T11:12:38.398Z,50.1
2018-02-11T11:13:38.669Z,49.73
2018-02-11T11:14:38.431Z,49.73
2018-02-11T11:15:38.700Z,49.44
2018-02-11T11:16:38.717Z,49.54
2018-02-11T11:17:38.736Z,49.25
2018-02-11T11:18:38.753Z,48.68
2018-02-11T11:19:38.768Z,49.25
2018-02-11T11:20:38.790Z,49.44
2018-02-11T11:21:38.555Z,50.18
2018-02-11T11:22:38.570Z,50.2
2018-02-11T11:23:38.840Z,50.46
2018-02-11T11:24:38.602Z,50.37
2018-02-11T11:25:38.670Z,51.12
2018-02-11T11:26:38.635Z,50.74
2018-02-11T11:27:38.662Z,51.6
2018-02-11T11:28:38.924Z,51.98
2018-02-11T11:29:38.941Z,52.08
2018-02-11T11:30:38.706Z,51.79
2018-02-11T11:31:38.983Z,51.03
2018-02-11T11:32:38.991Z,51.89
2018-02-11T11:33:39.006Z,51.6
2018-02-11T11:34:39.027Z,51.6
2018-02-11T11:35:38.792Z,51.79
2018-02-11T11:36:38.807Z,50.84
2018-02-11T11:37:39.082Z,51.31
2018-02-11T11:38:39.095Z,51.41
2018-02-11T11:39:38.859Z,52.64
2018-02-11T11:40:38.873Z,52.62
2018-02-11T11:41:39.142Z,52.91
2018-02-11T11:42:39.162Z,53.85
2018-02-11T11:43:39.177Z,54.39
2018-02-11T11:44:39.189Z,54.3
2018-02-11T11:45:39.208Z,54.21
2018-02-11T11:46:39.225Z,54.11
2018-02-11T11:47:39.242Z,55.35
2018-02-11T11:48:39.000Z,55.73
2018-02-11T11:49:39.272Z,55.91
2018-02-11T11:50:39.287Z,56.77
2018-02-11T11:51:39.298Z,56.49
2018-02-11T11:52:39.064Z,55.91
2018-02-11T11:53:39.332Z,56.1
2018-02-11T11:54:39.351Z,56.2
2018-02-11T11:55:39.112Z,55.18
2018-02-11T11:56:39.382Z,55.09
2018-02-11T11:57:39.154Z,55.09
2018-02-11T11:58:39.416Z,55.85
2018-02-11T11:59:39.432Z,56.32
2018-02-11T12:00:39.192Z,56.04
2018-02-11T12:01:39.207Z,56.13
2018-02-11T12:02:39.476Z,55.94
2018-02-11T12:03:39.491Z,56.51
2018-02-11T12:04:39.510Z,56.61
2018-02-11T12:05:39.287Z,56.42
2018-02-11T12:06:39.538Z,56.51
2018-02-11T12:07:39.302Z,56.42
2018-02-11T12:08:39.320Z,56.23
2018-02-11T12:09:39.591Z,56.89
2018-02-11T12:10:39.599Z,57.46
2018-02-11T12:11:39.367Z,58.22
2018-02-11T12:12:39.383Z,58.98
2018-02-11T12:13:39.649Z,59.74
2018-02-11T12:14:39.664Z,60.22
2018-02-11T12:15:39.429Z,60.13
2018-02-11T12:16:39.445Z,60.22
2018-02-11T12:17:39.461Z,59.55
2018-02-11T12:18:39.479Z,59.3
2018-02-11T12:19:39.811Z,59.77
2018-02-11T12:20:39.564Z,59.55
2018-02-11T12:21:39.521Z,59.46
2018-02-11T12:22:39.793Z,58.92
2018-02-11T12:23:39.810Z,59.01
2018-02-11T12:24:39.578Z,59.3
2018-02-11T12:25:39.845Z,58.83
2018-02-11T12:26:39.862Z,58.83
2018-02-11T12:27:39.878Z,59.39
2018-02-11T12:28:39.643Z,58.83
2018-02-11T12:29:39.659Z,58.73
2018-02-11T12:30:39.675Z,58.16
2018-02-11T12:31:39.944Z,58.37
2018-02-11T12:32:39.958Z,57.97
2018-02-11T12:33:39.978Z,58.66
2018-02-11T12:34:39.994Z,58.47
2018-02-11T12:35:40.011Z,58.73
2018-02-11T12:36:40.028Z,58.63
2018-02-11T12:37:40.041Z,58.76
2018-02-11T12:38:39.808Z,59.2
2018-02-11T12:39:39.825Z,60.25
2018-02-11T12:40:40.100Z,61.1
2018-02-11T12:41:40.127Z,61.96
2018-02-11T12:42:39.871Z,62.05
2018-02-11T12:43:39.889Z,62.72
2018-02-11T12:44:40.155Z,62.31
2018-02-11T12:45:40.176Z,63.17
2018-02-11T12:46:40.191Z,63.64
2018-02-11T12:47:39.954Z,64.4
2018-02-11T12:48:39.973Z,64.87
2018-02-11T12:49:40.307Z,65.63
2018-02-11T12:50:40.003Z,65.63
2018-02-11T12:51:40.021Z,65.73
2018-02-11T12:52:40.288Z,65.73
2018-02-11T12:53:40.052Z,65.54
2018-02-11T12:54:40.071Z,64.69
2018-02-11T12:55:40.339Z,64.87
2018-02-11T12:56:40.353Z,65.63